createdAt,value
2022-10-09T00:00:59.410Z,930.0000
2022-10-09T00:02:01.885Z,927.0000
2022-10-09T00:03:03.926Z,924.0000
2022-10-09T00:04:06.176Z,921.0000
2022-10-09T00:05:06.352Z,916.0000
2022-10-09T00:06:08.538Z,912.0000
2022-10-09T00:07:10.826Z,913.0000
2022-10-09T00:08:13.047Z,913.0000
2022-10-09T00:09:15.330Z,908.0000
2022-10-09T00:10:17.561Z,907.0000
2022-10-09T00:11:19.772Z,905.0000
2022-10-09T00:12:21.977Z,905.0000
2022-10-09T00:13:24.119Z,905.0000
2022-10-09T00:14:24.156Z,902.0000
2022-10-09T00:15:26.358Z,901.0000
2022-10-09T00:16:28.601Z,899.0000
2022-10-09T00:17:30.826Z,897.0000
2022-10-09T00:18:33.045Z,893.0000
2022-10-09T00:19:33.158Z,891.0000
2022-10-09T00:20:35.367Z,891.0000
2022-10-09T00:21:37.517Z,888.0000
2022-10-09T00:22:39.735Z,885.0000
2022-10-09T00:23:41.835Z,881.0000
2022-10-09T00:24:44.022Z,879.0000
2022-10-09T00:25:46.188Z,878.0000
2022-10-09T00:26:48.380Z,878.0000
2022-10-09T00:27:50.604Z,875.0000
2022-10-09T00:28:52.787Z,874.0000
2022-10-09T00:29:54.870Z,878.0000
2022-10-09T00:30:57.094Z,877.0000
2022-10-09T00:33:09.050Z,857.0000
2022-10-09T00:34:11.155Z,857.0000
2022-10-09T00:35:13.340Z,858.0000
2022-10-09T00:36:15.545Z,856.0000
2022-10-09T00:37:17.704Z,855.0000
2022-10-09T00:38:19.897Z,852.0000
2022-10-09T00:39:22.032Z,851.0000
2022-10-09T00:40:24.231Z,849.0000
2022-10-09T00:41:24.295Z,844.0000
2022-10-09T00:42:26.490Z,844.0000
2022-10-09T00:43:28.709Z,845.0000
2022-10-09T00:44:30.859Z,842.0000
2022-10-09T00:45:33.034Z,838.0000
2022-10-09T00:46:35.278Z,838.0000
2022-10-09T00:47:37.352Z,834.0000
2022-10-09T00:48:39.643Z,836.0000
2022-10-09T00:49:41.685Z,835.0000
2022-10-09T00:50:43.815Z,832.0000
2022-10-09T00:51:45.954Z,835.0000
2022-10-09T00:52:48.444Z,834.0000
2022-10-09T00:53:50.447Z,835.0000
2022-10-09T00:54:52.491Z,838.0000
2022-10-09T00:55:54.694Z,837.0000
2022-10-09T00:56:56.861Z,833.0000
2022-10-09T00:57:59.043Z,830.0000
2022-10-09T00:59:01.265Z,830.0000
2022-10-09T01:00:03.430Z,829.0000
2022-10-09T01:01:05.702Z,830.0000
2022-10-09T01:02:07.979Z,828.0000
2022-10-09T01:03:09.956Z,826.0000
2022-10-09T01:04:10.118Z,825.0000
2022-10-09T01:05:12.217Z,822.0000
2022-10-09T01:06:13.264Z,824.0000
2022-10-09T01:07:14.476Z,819.0000
2022-10-09T01:08:16.672Z,821.0000
2022-10-09T01:09:18.912Z,823.0000
2022-10-09T01:10:21.128Z,823.0000
2022-10-09T01:11:23.358Z,819.0000
2022-10-09T01:12:25.518Z,819.0000
2022-10-09T01:13:27.702Z,815.0000
2022-10-09T01:14:30.005Z,815.0000
2022-10-09T01:15:32.116Z,815.0000
2022-10-09T01:16:34.252Z,816.0000
2022-10-09T01:17:36.422Z,814.0000
2022-10-09T01:18:36.394Z,814.0000
2022-10-09T01:19:38.530Z,813.0000
2022-10-09T01:20:40.630Z,810.0000
2022-10-09T01:21:42.805Z,807.0000
2022-10-09T01:22:45.031Z,806.0000
2022-10-09T01:23:47.136Z,804.0000
2022-10-09T01:24:49.436Z,801.0000
2022-10-09T01:25:51.498Z,802.0000
2022-10-09T01:26:53.692Z,802.0000
2022-10-09T01:27:55.843Z,800.0000
2022-10-09T01:28:57.991Z,797.0000
2022-10-09T01:30:00.223Z,795.0000
2022-10-09T01:31:02.452Z,795.0000
2022-10-09T01:32:04.590Z,793.0000
2022-10-09T01:33:06.775Z,793.0000
2022-10-09T01:34:08.984Z,794.0000
2022-10-09T01:35:11.278Z,790.0000
2022-10-09T01:36:13.465Z,788.0000
2022-10-09T01:37:15.738Z,790.0000
2022-10-09T01:38:45.468Z,775.0000
2022-10-09T01:39:48.192Z,770.0000
2022-10-09T01:40:48.392Z,769.0000
2022-10-09T01:41:50.466Z,770.0000
2022-10-09T01:42:52.791Z,770.0000
2022-10-09T01:43:54.959Z,767.0000
2022-10-09T01:44:57.185Z,762.0000
2022-10-09T01:45:59.455Z,763.0000
2022-10-09T01:47:01.574Z,763.0000
2022-10-09T01:48:03.812Z,764.0000
2022-10-09T01:49:06.007Z,761.0000
2022-10-09T01:50:08.203Z,761.0000
2022-10-09T01:51:10.445Z,763.0000
2022-10-09T01:52:12.628Z,763.0000
2022-10-09T01:53:14.838Z,763.0000
2022-10-09T01:54:17.032Z,762.0000
2022-10-09T01:55:19.235Z,761.0000
2022-10-09T01:56:19.284Z,762.0000
2022-10-09T01:57:21.448Z,761.0000
2022-10-09T01:58:23.734Z,756.0000
2022-10-09T01:59:25.829Z,756.0000
2022-10-09T02:00:28.034Z,755.0000
2022-10-09T02:01:30.319Z,755.0000
2022-10-09T02:02:32.555Z,752.0000
2022-10-09T02:03:34.679Z,753.0000
2022-10-09T02:04:36.898Z,754.0000
2022-10-09T02:05:39.145Z,755.0000
2022-10-09T02:06:41.406Z,755.0000
2022-10-09T02:07:43.622Z,755.0000
2022-10-09T02:08:45.871Z,754.0000
2022-10-09T02:09:48.152Z,753.0000
2022-10-09T02:10:50.360Z,751.0000
2022-10-09T02:11:52.635Z,751.0000
2022-10-09T02:12:54.853Z,749.0000
2022-10-09T02:13:57.097Z,745.0000
2022-10-09T02:14:59.293Z,743.0000
2022-10-09T02:16:01.542Z,741.0000
2022-10-09T02:17:03.779Z,739.0000
2022-10-09T02:18:06.007Z,739.0000
2022-10-09T02:19:08.261Z,736.0000
2022-10-09T02:20:10.506Z,735.0000
2022-10-09T02:21:10.607Z,734.0000
2022-10-09T02:22:12.902Z,735.0000
2022-10-09T02:23:15.157Z,730.0000
2022-10-09T02:24:17.443Z,731.0000
2022-10-09T02:25:19.722Z,731.0000
2022-10-09T02:26:22.004Z,729.0000
2022-10-09T02:27:24.309Z,728.0000
2022-10-09T02:28:26.610Z,724.0000
2022-10-09T02:29:26.725Z,723.0000
2022-10-09T02:30:28.937Z,721.0000
2022-10-09T02:31:31.264Z,721.0000
2022-10-09T02:32:33.534Z,720.0000
2022-10-09T02:33:35.799Z,718.0000
2022-10-09T02:34:38.065Z,720.0000
2022-10-09T02:35:40.303Z,719.0000
2022-10-09T02:36:42.543Z,720.0000
2022-10-09T02:37:42.659Z,716.0000
2022-10-09T02:38:44.834Z,714.0000
2022-10-09T02:39:46.983Z,715.0000
2022-10-09T02:40:49.189Z,716.0000
2022-10-09T02:41:51.404Z,718.0000
2022-10-09T02:42:53.566Z,718.0000
2022-10-09T02:43:55.764Z,718.0000
2022-10-09T02:44:57.972Z,717.0000
2022-10-09T02:46:00.211Z,715.0000
2022-10-09T02:47:02.293Z,715.0000
2022-10-09T02:48:04.551Z,715.0000
2022-10-09T02:49:06.769Z,713.0000
2022-10-09T02:50:09.059Z,712.0000
2022-10-09T02:51:11.321Z,711.0000
2022-10-09T02:52:11.423Z,712.0000
2022-10-09T02:53:13.653Z,711.0000
2022-10-09T02:54:15.848Z,709.0000
2022-10-09T02:55:18.071Z,709.0000
2022-10-09T02:56:20.311Z,706.0000
2022-10-09T02:57:22.529Z,705.0000
2022-10-09T02:57:58.735Z,694.0000
2022-10-09T02:58:59.342Z,693.0000
2022-10-09T03:00:01.507Z,690.0000
2022-10-09T03:01:03.659Z,690.0000
2022-10-09T03:02:05.941Z,691.0000
2022-10-09T03:03:07.978Z,693.0000
2022-10-09T03:04:10.185Z,695.0000
2022-10-09T03:05:12.395Z,698.0000
2022-10-09T03:06:14.653Z,697.0000
2022-10-09T03:07:16.899Z,695.0000
2022-10-09T03:08:19.156Z,695.0000
2022-10-09T03:09:21.413Z,696.0000
2022-10-09T03:10:23.667Z,695.0000
2022-10-09T03:11:23.781Z,691.0000
2022-10-09T03:12:26.031Z,691.0000
2022-10-09T03:13:28.290Z,691.0000
2022-10-09T03:14:30.568Z,690.0000
2022-10-09T03:15:32.803Z,690.0000
2022-10-09T03:16:35.104Z,688.0000
2022-10-09T03:17:37.269Z,687.0000
2022-10-09T03:18:39.506Z,684.0000
2022-10-09T03:19:41.760Z,681.0000
2022-10-09T03:20:43.867Z,679.0000
2022-10-09T03:21:46.045Z,678.0000
2022-10-09T03:22:48.565Z,681.0000
2022-10-09T03:23:48.278Z,678.0000
2022-10-09T03:24:50.489Z,679.0000
2022-10-09T03:25:52.662Z,679.0000
2022-10-09T03:26:54.866Z,677.0000
2022-10-09T03:27:57.079Z,673.0000
2022-10-09T03:28:59.302Z,672.0000
2022-10-09T03:30:01.581Z,673.0000
2022-10-09T03:31:03.836Z,672.0000
2022-10-09T03:32:06.091Z,674.0000
2022-10-09T03:33:06.116Z,669.0000
2022-10-09T03:34:08.318Z,669.0000
2022-10-09T03:35:10.538Z,671.0000
2022-10-09T03:36:12.694Z,672.0000
2022-10-09T03:37:14.882Z,671.0000
2022-10-09T03:38:17.104Z,669.0000
2022-10-09T03:39:19.331Z,667.0000
2022-10-09T03:40:21.599Z,662.0000
2022-10-09T03:41:23.788Z,660.0000
2022-10-09T03:42:26.013Z,662.0000
2022-10-09T03:43:28.238Z,664.0000
2022-10-09T03:44:30.397Z,665.0000
2022-10-09T03:45:32.578Z,664.0000
2022-10-09T03:46:34.847Z,665.0000
2022-10-09T03:47:36.834Z,670.0000
2022-10-09T03:48:39.029Z,669.0000
2022-10-09T03:49:41.228Z,664.0000
2022-10-09T03:50:43.415Z,660.0000
2022-10-09T03:51:45.589Z,659.0000
2022-10-09T03:52:45.987Z,658.0000
2022-10-09T03:53:47.900Z,657.0000
2022-10-09T03:54:50.124Z,656.0000
2022-10-09T03:55:52.397Z,656.0000
2022-10-09T03:56:54.603Z,653.0000
2022-10-09T03:57:56.819Z,654.0000
2022-10-09T03:58:59.056Z,654.0000
2022-10-09T04:00:01.281Z,651.0000
2022-10-09T04:01:03.632Z,650.0000
2022-10-09T04:02:05.873Z,649.0000
2022-10-09T04:03:07.964Z,649.0000
2022-10-09T04:04:10.139Z,646.0000
2022-10-09T04:05:12.303Z,642.0000
2022-10-09T04:06:14.523Z,642.0000
2022-10-09T04:07:14.490Z,640.0000
2022-10-09T04:08:16.652Z,638.0000
2022-10-09T04:09:18.857Z,638.0000
2022-10-09T04:10:21.045Z,637.0000
2022-10-09T04:11:23.230Z,635.0000
2022-10-09T04:12:25.340Z,636.0000
2022-10-09T04:13:27.561Z,637.0000
2022-10-09T04:14:29.797Z,638.0000
2022-10-09T04:15:32.063Z,637.0000
2022-10-09T04:16:34.433Z,640.0000
2022-10-09T04:17:36.619Z,644.0000
2022-10-09T04:18:38.874Z,647.0000
2022-10-09T04:19:41.152Z,647.0000
2022-10-09T04:20:41.262Z,646.0000
2022-10-09T04:21:43.547Z,647.0000
2022-10-09T04:22:45.963Z,649.0000
2022-10-09T04:23:47.960Z,652.0000
2022-10-09T04:24:50.224Z,654.0000
2022-10-09T04:25:52.495Z,654.0000
2022-10-09T04:26:54.758Z,657.0000
2022-10-09T04:27:56.993Z,657.0000
2022-10-09T04:28:59.267Z,657.0000
2022-10-09T04:30:01.563Z,657.0000
2022-10-09T04:31:01.679Z,660.0000
2022-10-09T04:32:03.961Z,664.0000
2022-10-09T04:33:11.801Z,665.0000
2022-10-09T04:34:06.340Z,669.0000
2022-10-09T04:35:08.602Z,674.0000
2022-10-09T04:36:10.865Z,675.0000
2022-10-09T04:37:11.004Z,678.0000
2022-10-09T04:38:47.182Z,655.0000
2022-10-09T04:39:49.872Z,674.0000
2022-10-09T04:40:52.083Z,672.0000
2022-10-09T04:41:54.297Z,673.0000
2022-10-09T04:42:56.546Z,673.0000
2022-10-09T04:43:58.767Z,673.0000
2022-10-09T04:44:58.862Z,671.0000
2022-10-09T04:46:01.183Z,670.0000
2022-10-09T04:47:03.371Z,673.0000
2022-10-09T04:48:05.659Z,676.0000
2022-10-09T04:49:07.890Z,674.0000
2022-10-09T04:50:10.116Z,676.0000
2022-10-09T04:51:12.370Z,675.0000
2022-10-09T04:52:14.629Z,675.0000
2022-10-09T04:53:16.923Z,676.0000
2022-10-09T04:54:17.002Z,677.0000
2022-10-09T04:55:19.199Z,676.0000
2022-10-09T04:56:21.409Z,677.0000
2022-10-09T04:57:23.611Z,677.0000
2022-10-09T04:58:25.863Z,677.0000
2022-10-09T04:59:28.038Z,671.0000
2022-10-09T05:00:30.249Z,669.0000
2022-10-09T05:01:37.933Z,670.0000
2022-10-09T05:02:34.728Z,667.0000
2022-10-09T05:03:36.856Z,668.0000
2022-10-09T05:04:39.083Z,669.0000
2022-10-09T05:05:41.284Z,671.0000
2022-10-09T05:06:43.491Z,669.0000
2022-10-09T05:07:45.731Z,666.0000
2022-10-09T05:08:48.010Z,665.0000
2022-10-09T05:09:48.023Z,664.0000
2022-10-09T05:10:50.284Z,663.0000
2022-10-09T05:11:52.492Z,662.0000
2022-10-09T05:12:54.666Z,661.0000
2022-10-09T05:13:56.890Z,660.0000
2022-10-09T05:14:59.127Z,659.0000
2022-10-09T05:16:01.430Z,656.0000
2022-10-09T05:17:14.822Z,655.0000
2022-10-09T05:18:05.931Z,657.0000
2022-10-09T05:19:08.250Z,652.0000
2022-10-09T05:20:08.364Z,652.0000
2022-10-09T05:21:10.621Z,651.0000
2022-10-09T05:22:12.903Z,653.0000
2022-10-09T05:23:15.200Z,653.0000
2022-10-09T05:24:17.532Z,650.0000
2022-10-09T05:25:19.786Z,650.0000
2022-10-09T05:26:22.073Z,650.0000
2022-10-09T05:27:22.213Z,650.0000
2022-10-09T05:28:24.626Z,652.0000
2022-10-09T05:29:26.829Z,652.0000
2022-10-09T05:30:29.100Z,652.0000
2022-10-09T05:31:31.448Z,654.0000
2022-10-09T05:32:33.704Z,651.0000
2022-10-09T05:33:35.953Z,654.0000
2022-10-09T05:34:36.129Z,656.0000
2022-10-09T05:35:38.421Z,653.0000
2022-10-09T05:36:40.679Z,654.0000
2022-10-09T05:37:42.907Z,651.0000
2022-10-09T05:38:45.175Z,651.0000
2022-10-09T05:39:47.439Z,652.0000
2022-10-09T05:40:49.649Z,648.0000
2022-10-09T05:41:51.891Z,647.0000
2022-10-09T05:42:54.166Z,644.0000
2022-10-09T05:43:56.399Z,647.0000
2022-10-09T05:44:58.697Z,648.0000
2022-10-09T05:46:00.979Z,648.0000
2022-10-09T05:47:03.197Z,647.0000
2022-10-09T05:48:05.464Z,645.0000
2022-10-09T05:49:07.775Z,647.0000
2022-10-09T05:50:10.228Z,646.0000
2022-10-09T05:51:10.294Z,646.0000
2022-10-09T05:52:12.558Z,647.0000
2022-10-09T05:53:14.863Z,649.0000
2022-10-09T05:54:17.132Z,650.0000
2022-10-09T05:55:19.476Z,650.0000
2022-10-09T05:56:21.784Z,649.0000
2022-10-09T05:57:21.930Z,650.0000
2022-10-09T05:58:24.268Z,653.0000
2022-10-09T05:59:26.592Z,651.0000
2022-10-09T06:00:29.002Z,654.0000
2022-10-09T06:01:31.248Z,656.0000
2022-10-09T06:02:33.457Z,656.0000
2022-10-09T06:03:35.561Z,660.0000
2022-10-09T06:04:37.755Z,662.0000
2022-10-09T06:05:40.023Z,661.0000
2022-10-09T06:06:40.067Z,662.0000
2022-10-09T06:07:42.273Z,664.0000
2022-10-09T06:08:44.485Z,661.0000
2022-10-09T06:09:46.687Z,662.0000
2022-10-09T06:10:48.918Z,660.0000
2022-10-09T06:11:51.132Z,658.0000
2022-10-09T06:12:53.302Z,661.0000
2022-10-09T06:13:55.540Z,663.0000
2022-10-09T06:14:57.782Z,663.0000
2022-10-09T06:16:00.026Z,663.0000
2022-10-09T06:17:02.296Z,664.0000
2022-10-09T06:18:04.463Z,665.0000
2022-10-09T06:19:04.580Z,666.0000
2022-10-09T06:20:06.847Z,668.0000
2022-10-09T06:21:09.134Z,666.0000
2022-10-09T06:22:11.355Z,670.0000
2022-10-09T06:23:13.562Z,674.0000
2022-10-09T06:24:15.779Z,678.0000
2022-10-09T06:25:17.966Z,680.0000
2022-10-09T06:26:20.187Z,682.0000
2022-10-09T06:27:22.350Z,684.0000
2022-10-09T06:28:24.598Z,681.0000
2022-10-09T06:29:26.787Z,681.0000
2022-10-09T06:30:29.081Z,682.0000
2022-10-09T06:31:31.174Z,683.0000
2022-10-09T06:32:33.317Z,682.0000
2022-10-09T06:33:35.473Z,682.0000
2022-10-09T06:34:37.657Z,680.0000
2022-10-09T06:35:37.724Z,679.0000
2022-10-09T06:36:40.017Z,680.0000
2022-10-09T06:37:42.292Z,678.0000
2022-10-09T06:38:44.515Z,678.0000
2022-10-09T06:39:46.764Z,678.0000
2022-10-09T06:40:49.003Z,678.0000
2022-10-09T06:41:51.305Z,682.0000
2022-10-09T06:42:53.500Z,684.0000
2022-10-09T06:43:55.725Z,687.0000
2022-10-09T06:44:57.979Z,688.0000
2022-10-09T06:45:58.154Z,689.0000
2022-10-09T06:47:00.496Z,692.0000
2022-10-09T06:48:02.548Z,694.0000
2022-10-09T06:49:04.796Z,693.0000
2022-10-09T06:50:07.063Z,699.0000
2022-10-09T06:51:09.328Z,698.0000
2022-10-09T06:52:11.696Z,699.0000
2022-10-09T06:53:13.776Z,701.0000
2022-10-09T06:54:15.954Z,705.0000
2022-10-09T06:55:18.216Z,703.0000
2022-10-09T06:56:18.303Z,705.0000
2022-10-09T06:57:20.584Z,709.0000
2022-10-09T06:58:22.701Z,707.0000
2022-10-09T06:59:24.830Z,657.0000
2022-10-09T07:00:27.001Z,655.0000
2022-10-09T07:01:29.175Z,679.0000
2022-10-09T07:02:31.354Z,685.0000
2022-10-09T07:03:33.468Z,690.0000
2022-10-09T07:04:35.663Z,690.0000
2022-10-09T07:05:37.898Z,690.0000
2022-10-09T07:06:40.202Z,686.0000
2022-10-09T07:07:42.446Z,689.0000
2022-10-09T07:08:44.734Z,693.0000
2022-10-09T07:09:44.876Z,693.0000
2022-10-09T07:10:47.144Z,699.0000
2022-10-09T07:11:49.659Z,701.0000
2022-10-09T07:12:51.853Z,704.0000
2022-10-09T07:13:53.906Z,705.0000
2022-10-09T07:14:56.131Z,705.0000
2022-10-09T07:16:01.397Z,703.0000
2022-10-09T07:16:58.430Z,706.0000
2022-10-09T07:18:00.699Z,704.0000
2022-10-09T07:19:02.887Z,709.0000
2022-10-09T07:20:05.092Z,712.0000
2022-10-09T07:21:07.309Z,714.0000
2022-10-09T07:22:09.752Z,712.0000
2022-10-09T07:23:11.758Z,712.0000
2022-10-09T07:24:13.966Z,712.0000
2022-10-09T07:25:16.138Z,713.0000
2022-10-09T07:26:18.272Z,714.0000
2022-10-09T07:27:20.401Z,712.0000
2022-10-09T07:28:22.646Z,713.0000
2022-10-09T07:29:22.472Z,714.0000
2022-10-09T07:30:24.608Z,716.0000
2022-10-09T07:31:26.859Z,716.0000
2022-10-09T07:32:26.821Z,716.0000
2022-10-09T07:33:29.020Z,716.0000
2022-10-09T07:34:31.257Z,711.0000
2022-10-09T07:35:33.491Z,709.0000
2022-10-09T07:36:35.764Z,703.0000
2022-10-09T07:37:38.017Z,704.0000
2022-10-09T07:38:40.359Z,708.0000
2022-10-09T07:39:45.028Z,709.0000
2022-10-09T07:40:44.689Z,713.0000
2022-10-09T07:41:46.901Z,719.0000
2022-10-09T07:42:49.526Z,724.0000
2022-10-09T07:43:51.524Z,731.0000
2022-10-09T07:44:51.509Z,734.0000
2022-10-09T07:45:53.789Z,739.0000
2022-10-09T07:46:55.976Z,744.0000
2022-10-09T07:47:58.206Z,748.0000
2022-10-09T07:50:30.763Z,760.0000
2022-10-09T07:51:32.745Z,760.0000
2022-10-09T07:52:34.844Z,764.0000
2022-10-09T07:53:36.990Z,768.0000
2022-10-09T07:54:39.141Z,772.0000
2022-10-09T07:55:41.351Z,774.0000
2022-10-09T07:56:43.480Z,775.0000
2022-10-09T07:57:45.662Z,782.0000
2022-10-09T07:58:47.840Z,782.0000
2022-10-09T07:59:50.041Z,784.0000
2022-10-09T08:00:52.256Z,790.0000
2022-10-09T08:01:54.521Z,794.0000
2022-10-09T08:02:56.661Z,796.0000
2022-10-09T08:03:58.701Z,795.0000
2022-10-09T08:05:00.861Z,798.0000
2022-10-09T08:06:03.084Z,801.0000
2022-10-09T08:07:03.015Z,804.0000
2022-10-09T08:08:05.190Z,805.0000
2022-10-09T08:09:07.323Z,808.0000
2022-10-09T08:10:09.459Z,818.0000
2022-10-09T08:11:11.790Z,822.0000
2022-10-09T08:12:13.810Z,831.0000
2022-10-09T08:13:15.991Z,837.0000
2022-10-09T08:14:19.467Z,837.0000
2022-10-09T08:15:20.330Z,836.0000
2022-10-09T08:16:22.644Z,836.0000
2022-10-09T08:17:24.717Z,836.0000
2022-10-09T08:18:26.910Z,838.0000
2022-10-09T08:19:29.038Z,841.0000
2022-10-09T08:20:31.209Z,839.0000
2022-10-09T08:21:33.430Z,844.0000
2022-10-09T08:22:35.576Z,850.0000
2022-10-09T08:22:44.169Z,850.0000
2022-10-09T08:23:46.349Z,851.0000
2022-10-09T08:24:48.548Z,855.0000
2022-10-09T08:25:50.748Z,857.0000
2022-10-09T08:26:52.985Z,867.0000
2022-10-09T08:27:55.142Z,876.0000
2022-10-09T08:28:57.392Z,884.0000
2022-10-09T08:29:59.639Z,891.0000
2022-10-09T08:31:01.943Z,895.0000
2022-10-09T08:32:04.256Z,902.0000
2022-10-09T08:33:06.384Z,904.0000
2022-10-09T08:34:08.638Z,911.0000
2022-10-09T08:34:47.496Z,912.0000
2022-10-09T08:35:49.482Z,913.0000
2022-10-09T08:36:51.685Z,916.0000
2022-10-09T08:37:53.957Z,920.0000
2022-10-09T08:38:56.127Z,922.0000
2022-10-09T08:39:58.310Z,925.0000
2022-10-09T08:41:00.525Z,930.0000
2022-10-09T08:42:02.754Z,934.0000
2022-10-09T08:43:04.962Z,940.0000
2022-10-09T08:44:07.114Z,940.0000
2022-10-09T08:45:09.316Z,942.0000
2022-10-09T08:46:09.432Z,943.0000
2022-10-09T08:47:11.546Z,945.0000
2022-10-09T08:48:13.733Z,951.0000
2022-10-09T08:49:15.926Z,958.0000
2022-10-09T08:50:18.141Z,961.0000
2022-10-09T08:51:20.355Z,958.0000
2022-10-09T08:52:22.551Z,961.0000
2022-10-09T08:53:24.778Z,965.0000
2022-10-09T08:54:26.947Z,967.0000
2022-10-09T08:55:29.149Z,969.0000
2022-10-09T08:56:31.349Z,969.0000
2022-10-09T08:57:33.571Z,971.0000
2022-10-09T08:58:35.823Z,973.0000
2022-10-09T08:59:37.939Z,973.0000
2022-10-09T09:00:40.150Z,977.0000
2022-10-09T09:01:42.417Z,979.0000
2022-10-09T09:02:44.576Z,985.0000
2022-10-09T09:03:46.866Z,987.0000
2022-10-09T09:04:53.778Z,997.0000
2022-10-09T09:05:51.054Z,1001.0000
2022-10-09T09:06:53.214Z,1003.0000
2022-10-09T09:07:55.394Z,1008.0000
2022-10-09T09:08:57.636Z,1004.0000
2022-10-09T09:09:59.773Z,1009.0000
2022-10-09T09:11:01.956Z,1014.0000
2022-10-09T09:12:04.150Z,1018.0000
2022-10-09T09:13:06.353Z,1021.0000
2022-10-09T09:14:08.563Z,1026.0000
2022-10-09T09:15:10.725Z,1024.0000
2022-10-09T09:16:12.950Z,1024.0000
2022-10-09T09:17:15.116Z,1020.0000
2022-10-09T09:18:17.244Z,1029.0000
2022-10-09T09:19:19.539Z,1034.0000
2022-10-09T09:20:21.636Z,1038.0000
2022-10-09T09:21:21.546Z,1038.0000
2022-10-09T09:22:23.735Z,1044.0000
2022-10-09T09:23:25.925Z,1052.0000
2022-10-09T09:24:28.159Z,1048.0000
2022-10-09T09:25:30.314Z,1056.0000
2022-10-09T09:26:32.496Z,1060.0000
2022-10-09T09:27:34.687Z,1062.0000
2022-10-09T09:28:36.999Z,1068.0000
2022-10-09T09:29:39.079Z,1072.0000
2022-10-09T09:30:41.241Z,1073.0000
2022-10-09T09:31:43.507Z,1081.0000
2022-10-09T09:32:45.634Z,1085.0000
2022-10-09T09:33:47.751Z,1090.0000
2022-10-09T09:34:49.956Z,1088.0000
2022-10-09T09:35:52.100Z,1095.0000
2022-10-09T09:36:54.319Z,1096.0000
2022-10-09T09:37:56.568Z,1097.0000
2022-10-09T09:41:01.142Z,1105.0000
2022-10-09T09:42:03.366Z,1105.0000
2022-10-09T09:43:05.585Z,1106.0000
2022-10-09T09:44:07.863Z,1113.0000
2022-10-09T09:45:10.049Z,1113.0000
2022-10-09T09:46:12.280Z,1110.0000
2022-10-09T09:47:14.438Z,1107.0000
2022-10-09T09:48:14.504Z,1105.0000
2022-10-09T09:49:16.682Z,1097.0000
2022-10-09T09:50:45.612Z,1106.0000
2022-10-09T09:51:28.648Z,1106.0000
2022-10-09T09:52:23.155Z,1107.0000
2022-10-09T09:53:25.335Z,1111.0000
2022-10-09T09:54:27.525Z,1110.0000
2022-10-09T09:55:29.830Z,1123.0000
2022-10-09T09:56:39.142Z,1121.0000
2022-10-09T09:57:34.022Z,1123.0000
2022-10-09T09:58:36.184Z,1122.0000
2022-10-09T09:59:38.355Z,1120.0000
2022-10-09T10:00:40.653Z,1119.0000
2022-10-09T10:01:42.827Z,1122.0000
2022-10-09T10:02:45.016Z,1125.0000
2022-10-09T10:03:47.214Z,1126.0000
2022-10-09T10:04:49.404Z,1125.0000
2022-10-09T10:05:51.767Z,1134.0000
2022-10-09T10:06:53.865Z,1129.0000
2022-10-09T10:08:55.121Z,1113.0000
2022-10-09T10:10:56.326Z,1107.0000
2022-10-09T10:11:58.477Z,1100.0000
2022-10-09T10:13:00.656Z,1103.0000
2022-10-09T10:14:02.868Z,1107.0000
2022-10-09T10:15:05.102Z,1104.0000
2022-10-09T10:16:07.382Z,1102.0000
2022-10-09T10:17:11.714Z,1099.0000
2022-10-09T10:18:11.723Z,1106.0000
2022-10-09T10:19:13.915Z,1114.0000
2022-10-09T10:20:16.085Z,1126.0000
2022-10-09T10:21:18.296Z,1128.0000
2022-10-09T10:22:20.441Z,1129.0000
2022-10-09T10:23:22.642Z,1128.0000
2022-10-09T10:24:24.870Z,1128.0000
2022-10-09T10:25:24.909Z,1130.0000
2022-10-09T10:26:27.142Z,1128.0000
2022-10-09T10:27:29.345Z,1131.0000
2022-10-09T10:28:31.663Z,1132.0000
2022-10-09T10:29:33.826Z,1132.0000
2022-10-09T10:30:36.092Z,1137.0000
2022-10-09T10:31:38.406Z,1138.0000
2022-10-09T10:32:40.540Z,1144.0000
2022-10-09T10:33:42.746Z,1147.0000
2022-10-09T10:34:45.000Z,1151.0000
2022-10-09T10:35:47.258Z,1149.0000
2022-10-09T10:36:49.491Z,1147.0000
2022-10-09T10:37:49.884Z,1156.0000
2022-10-09T10:38:51.827Z,1162.0000
2022-10-09T10:39:54.085Z,1172.0000
2022-10-09T10:40:56.325Z,1176.0000
2022-10-09T10:41:58.619Z,1172.0000
2022-10-09T10:43:00.833Z,1174.0000
2022-10-09T10:44:03.074Z,1177.0000
2022-10-09T10:45:05.320Z,1177.0000
2022-10-09T10:46:07.589Z,1176.0000
2022-10-09T10:47:07.676Z,1178.0000
2022-10-09T10:48:09.880Z,1177.0000
2022-10-09T10:49:12.129Z,1178.0000
2022-10-09T10:50:14.361Z,1181.0000
2022-10-09T10:51:16.585Z,1187.0000
2022-10-09T10:52:18.865Z,1183.0000
2022-10-09T10:53:21.066Z,1191.0000
2022-10-09T10:54:23.320Z,1190.0000
2022-10-09T10:55:25.568Z,1188.0000
2022-10-09T10:56:27.816Z,1182.0000
2022-10-09T10:57:30.187Z,1183.0000
2022-10-09T10:58:30.152Z,1186.0000
2022-10-09T10:59:32.404Z,1192.0000
2022-10-09T11:00:02.696Z,1193.0000
2022-10-09T11:01:04.780Z,1192.0000
2022-10-09T11:02:06.962Z,1193.0000
2022-10-09T11:03:09.336Z,1190.0000
2022-10-09T11:04:11.415Z,1188.0000
2022-10-09T11:05:13.663Z,1186.0000
2022-10-09T11:06:15.887Z,1192.0000
2022-10-09T11:07:15.990Z,1191.0000
2022-10-09T11:08:18.221Z,1192.0000
2022-10-09T11:09:20.395Z,1191.0000
2022-10-09T11:10:22.644Z,1187.0000
2022-10-09T11:11:24.880Z,1183.0000
2022-10-09T11:12:46.926Z,1185.0000
2022-10-09T11:13:29.395Z,1191.0000
2022-10-09T11:14:31.544Z,1185.0000
2022-10-09T11:15:33.695Z,1178.0000
2022-10-09T11:16:35.877Z,1183.0000
2022-10-09T11:17:37.969Z,1192.0000
2022-10-09T11:18:40.176Z,1193.0000
2022-10-09T11:19:45.432Z,1182.0000
2022-10-09T11:20:44.495Z,1186.0000
2022-10-09T11:21:46.691Z,1195.0000
2022-10-09T11:22:49.118Z,1204.0000
2022-10-09T11:23:51.118Z,1210.0000
2022-10-09T11:24:53.261Z,1214.0000
2022-10-09T11:25:53.290Z,1218.0000
2022-10-09T11:26:59.617Z,1215.0000
2022-10-09T11:27:57.582Z,1208.0000
2022-10-09T11:28:59.833Z,1206.0000
2022-10-09T11:30:01.953Z,1212.0000
2022-10-09T11:31:04.304Z,1212.0000
2022-10-09T11:32:06.371Z,1212.0000
2022-10-09T11:33:08.583Z,1220.0000
2022-10-09T11:34:10.938Z,1216.0000
2022-10-09T11:35:13.004Z,1207.0000
2022-10-09T11:36:15.234Z,1196.0000
2022-10-09T11:37:17.446Z,1203.0000
2022-10-09T11:38:17.528Z,1206.0000
2022-10-09T11:39:19.893Z,1210.0000
2022-10-09T11:40:21.986Z,1202.0000
2022-10-09T11:41:24.210Z,1190.0000
2022-10-09T11:42:26.426Z,1178.0000
2022-10-09T11:43:28.658Z,1170.0000
2022-10-09T11:44:30.867Z,1170.0000
2022-10-09T11:45:33.134Z,1180.0000
2022-10-09T11:46:35.252Z,1176.0000
2022-10-09T11:47:37.455Z,1170.0000
2022-10-09T11:48:39.681Z,1169.0000
2022-10-09T11:49:41.890Z,1170.0000
2022-10-09T11:50:44.064Z,1161.0000
2022-10-09T11:51:46.221Z,1156.0000
2022-10-09T11:52:48.429Z,1150.0000
2022-10-09T11:53:50.586Z,1146.0000
2022-10-09T11:54:52.844Z,1136.0000
2022-10-09T11:55:52.858Z,1149.0000
2022-10-09T11:56:55.073Z,1143.0000
2022-10-09T11:59:25.309Z,1158.0000
2022-10-09T12:00:27.461Z,1127.0000
2022-10-09T12:01:28.522Z,1139.0000
2022-10-09T12:02:29.747Z,1135.0000
2022-10-09T12:03:31.910Z,1079.0000
2022-10-09T12:05:36.325Z,1109.0000
2022-10-09T12:06:38.510Z,1120.0000
2022-10-09T12:07:40.662Z,1117.0000
2022-10-09T12:08:42.730Z,1127.0000
2022-10-09T12:09:44.859Z,1137.0000
2022-10-09T12:10:47.092Z,1116.0000
2022-10-09T12:11:47.135Z,1116.0000